sensor_id;sensor_type;location;lat;lon;timestamp;P1;durP1;ratioP1;P2;durP2;ratioP2
31694;SDS011;18289;51.330;4.946;2022-09-20T00:00:03;4.82;;;2.90;;
31694;SDS011;18289;51.330;4.946;2022-09-20T00:02:29;11.88;;;3.40;;
31694;SDS011;18289;51.330;4.946;2022-09-20T00:04:55;6.18;;;3.58;;
31694;SDS011;18289;51.330;4.946;2022-09-20T00:07:21;5.90;;;3.55;;
31694;SDS011;18289;51.330;4.946;2022-09-20T00:09:46;6.05;;;3.33;;
31694;SDS011;18289;51.330;4.946;2022-09-20T00:12:12;6.95;;;3.75;;
31694;SDS011;18289;51.330;4.946;2022-09-20T00:14:39;4.88;;;3.50;;
31694;SDS011;18289;51.330;4.946;2022-09-20T00:17:05;6.20;;;3.42;;
31694;SDS011;18289;51.330;4.946;2022-09-20T00:19:31;7.88;;;3.30;;
31694;SDS011;18289;51.330;4.946;2022-09-20T00:21:56;5.65;;;3.70;;
31694;SDS011;18289;51.330;4.946;2022-09-20T00:24:22;5.65;;;3.80;;
31694;SDS011;18289;51.330;4.946;2022-09-20T00:26:48;7.32;;;3.42;;
31694;SDS011;18289;51.330;4.946;2022-09-20T00:29:13;8.43;;;3.55;;
31694;SDS011;18289;51.330;4.946;2022-09-20T00:31:39;4.53;;;3.03;;
31694;SDS011;18289;51.330;4.946;2022-09-20T00:34:07;6.55;;;3.45;;
31694;SDS011;18289;51.330;4.946;2022-09-20T00:36:52;5.78;;;3.28;;
31694;SDS011;18289;51.330;4.946;2022-09-20T00:39:18;7.40;;;3.85;;
31694;SDS011;18289;51.330;4.946;2022-09-20T00:41:44;11.20;;;4.63;;
31694;SDS011;18289;51.330;4.946;2022-09-20T00:47:29;5.82;;;2.83;;
31694;SDS011;18289;51.330;4.946;2022-09-20T00:52:47;4.90;;;3.47;;
31694;SDS011;18289;51.330;4.946;2022-09-20T00:55:28;7.15;;;3.25;;
31694;SDS011;18289;51.330;4.946;2022-09-20T00:57:55;9.82;;;3.28;;
31694;SDS011;18289;51.330;4.946;2022-09-20T01:00:22;6.50;;;3.00;;
31694;SDS011;18289;51.330;4.946;2022-09-20T01:02:50;6.82;;;3.40;;
31694;SDS011;18289;51.330;4.946;2022-09-20T01:05:21;6.57;;;3.13;;
31694;SDS011;18289;51.330;4.946;2022-09-20T01:07:47;3.42;;;2.40;;
31694;SDS011;18289;51.330;4.946;2022-09-20T01:10:14;8.55;;;2.90;;
31694;SDS011;18289;51.330;4.946;2022-09-20T01:12:40;3.63;;;2.50;;
31694;SDS011;18289;51.330;4.946;2022-09-20T01:15:10;7.60;;;2.67;;
31694;SDS011;18289;51.330;4.946;2022-09-20T01:17:38;5.97;;;2.70;;
31694;SDS011;18289;51.330;4.946;2022-09-20T01:28:26;8.18;;;2.92;;
31694;SDS011;18289;51.330;4.946;2022-09-20T01:33:40;7.70;;;2.80;;
31694;SDS011;18289;51.330;4.946;2022-09-20T01:36:24;7.35;;;3.30;;
31694;SDS011;18289;51.330;4.946;2022-09-20T01:41:35;9.15;;;3.17;;
31694;SDS011;18289;51.330;4.946;2022-09-20T01:47:17;6.70;;;3.22;;
31694;SDS011;18289;51.330;4.946;2022-09-20T01:53:19;6.93;;;2.80;;
31694;SDS011;18289;51.330;4.946;2022-09-20T01:58:44;7.15;;;2.90;;
31694;SDS011;18289;51.330;4.946;2022-09-20T02:13:03;7.30;;;3.40;;
31694;SDS011;18289;51.330;4.946;2022-09-20T02:24:40;5.05;;;2.45;;
31694;SDS011;18289;51.330;4.946;2022-09-20T02:27:22;7.13;;;2.80;;
31694;SDS011;18289;51.330;4.946;2022-09-20T02:33:05;4.93;;;2.60;;
31694;SDS011;18289;51.330;4.946;2022-09-20T02:39:06;4.13;;;2.38;;
31694;SDS011;18289;51.330;4.946;2022-09-20T02:42:24;5.53;;;2.67;;
31694;SDS011;18289;51.330;4.946;2022-09-20T02:45:05;5.40;;;2.28;;
31694;SDS011;18289;51.330;4.946;2022-09-20T02:50:44;2.30;;;2.03;;
31694;SDS011;18289;51.330;4.946;2022-09-20T02:56:06;4.13;;;2.38;;
31694;SDS011;18289;51.330;4.946;2022-09-20T03:01:34;2.88;;;1.90;;
31694;SDS011;18289;51.330;4.946;2022-09-20T03:09:55;3.38;;;2.13;;
31694;SDS011;18289;51.330;4.946;2022-09-20T03:18:07;4.25;;;2.30;;
31694;SDS011;18289;51.330;4.946;2022-09-20T03:38:38;4.05;;;2.33;;
31694;SDS011;18289;51.330;4.946;2022-09-20T03:46:25;3.63;;;2.30;;
31694;SDS011;18289;51.330;4.946;2022-09-20T03:49:01;3.85;;;2.33;;
31694;SDS011;18289;51.330;4.946;2022-09-20T04:00:05;5.88;;;3.30;;
31694;SDS011;18289;51.330;4.946;2022-09-20T04:14:17;3.47;;;2.22;;
31694;SDS011;18289;51.330;4.946;2022-09-20T04:16:56;3.05;;;2.50;;
31694;SDS011;18289;51.330;4.946;2022-09-20T04:19:32;2.33;;;2.13;;
31694;SDS011;18289;51.330;4.946;2022-09-20T04:22:09;3.17;;;2.88;;
31694;SDS011;18289;51.330;4.946;2022-09-20T04:24:52;3.92;;;2.15;;
31694;SDS011;18289;51.330;4.946;2022-09-20T04:27:40;2.65;;;2.17;;
31694;SDS011;18289;51.330;4.946;2022-09-20T04:30:16;4.32;;;2.33;;
31694;SDS011;18289;51.330;4.946;2022-09-20T04:38:37;3.65;;;2.50;;
31694;SDS011;18289;51.330;4.946;2022-09-20T05:03:23;5.25;;;3.50;;
31694;SDS011;18289;51.330;4.946;2022-09-20T05:06:14;6.65;;;3.03;;
31694;SDS011;18289;51.330;4.946;2022-09-20T05:09:02;5.80;;;3.40;;
31694;SDS011;18289;51.330;4.946;2022-09-20T05:25:02;3.47;;;3.03;;
31694;SDS011;18289;51.330;4.946;2022-09-20T05:30:24;4.68;;;3.95;;
31694;SDS011;18289;51.330;4.946;2022-09-20T05:38:59;7.40;;;4.60;;
31694;SDS011;18289;51.330;4.946;2022-09-20T05:41:38;9.68;;;5.00;;
31694;SDS011;18289;51.330;4.946;2022-09-20T05:47:15;6.47;;;4.00;;
31694;SDS011;18289;51.330;4.946;2022-09-20T05:58:27;7.22;;;3.53;;
31694;SDS011;18289;51.330;4.946;2022-09-20T06:04:14;4.07;;;3.67;;
31694;SDS011;18289;51.330;4.946;2022-09-20T06:09:53;6.68;;;3.30;;
31694;SDS011;18289;51.330;4.946;2022-09-20T06:15:19;4.95;;;3.63;;
31694;SDS011;18289;51.330;4.946;2022-09-20T06:17:58;6.55;;;3.50;;
31694;SDS011;18289;51.330;4.946;2022-09-20T06:20:45;7.00;;;4.10;;
31694;SDS011;18289;51.330;4.946;2022-09-20T06:23:18;6.82;;;4.85;;
31694;SDS011;18289;51.330;4.946;2022-09-20T06:25:49;7.60;;;4.75;;
31694;SDS011;18289;51.330;4.946;2022-09-20T06:28:21;10.65;;;5.97;;
31694;SDS011;18289;51.330;4.946;2022-09-20T06:30:51;15.20;;;8.90;;
31694;SDS011;18289;51.330;4.946;2022-09-20T06:33:25;7.47;;;4.60;;
31694;SDS011;18289;51.330;4.946;2022-09-20T06:39:39;9.57;;;5.47;;
31694;SDS011;18289;51.330;4.946;2022-09-20T06:42:13;7.07;;;5.13;;
31694;SDS011;18289;51.330;4.946;2022-09-20T06:44:39;6.32;;;4.72;;
31694;SDS011;18289;51.330;4.946;2022-09-20T06:47:10;7.22;;;4.78;;
31694;SDS011;18289;51.330;4.946;2022-09-20T06:49:37;9.20;;;5.63;;
31694;SDS011;18289;51.330;4.946;2022-09-20T06:52:05;5.90;;;4.70;;
31694;SDS011;18289;51.330;4.946;2022-09-20T06:54:34;6.65;;;4.97;;
31694;SDS011;18289;51.330;4.946;2022-09-20T06:57:02;18.92;;;5.68;;
31694;SDS011;18289;51.330;4.946;2022-09-20T06:59:30;8.07;;;4.93;;
31694;SDS011;18289;51.330;4.946;2022-09-20T07:01:56;11.45;;;7.10;;
31694;SDS011;18289;51.330;4.946;2022-09-20T07:04:22;11.65;;;5.90;;
31694;SDS011;18289;51.330;4.946;2022-09-20T07:06:48;7.22;;;4.85;;
31694;SDS011;18289;51.330;4.946;2022-09-20T07:09:15;6.13;;;4.15;;
31694;SDS011;18289;51.330;4.946;2022-09-20T07:11:41;8.55;;;5.20;;
31694;SDS011;18289;51.330;4.946;2022-09-20T07:14:09;6.85;;;5.45;;
31694;SDS011;18289;51.330;4.946;2022-09-20T07:16:34;5.78;;;4.70;;
31694;SDS011;18289;51.330;4.946;2022-09-20T07:19:01;5.55;;;4.70;;
31694;SDS011;18289;51.330;4.946;2022-09-20T07:21:27;7.82;;;4.65;;
31694;SDS011;18289;51.330;4.946;2022-09-20T07:23:53;6.60;;;4.85;;
31694;SDS011;18289;51.330;4.946;2022-09-20T07:28:52;7.65;;;4.18;;
31694;SDS011;18289;51.330;4.946;2022-09-20T07:31:20;5.68;;;4.40;;
31694;SDS011;18289;51.330;4.946;2022-09-20T07:33:47;7.95;;;5.18;;
31694;SDS011;18289;51.330;4.946;2022-09-20T07:36:13;6.80;;;4.38;;
31694;SDS011;18289;51.330;4.946;2022-09-20T07:38:40;7.82;;;4.50;;
31694;SDS011;18289;51.330;4.946;2022-09-20T07:41:07;5.45;;;4.25;;
31694;SDS011;18289;51.330;4.946;2022-09-20T07:43:34;6.03;;;4.50;;
31694;SDS011;18289;51.330;4.946;2022-09-20T07:46:00;8.15;;;4.80;;
31694;SDS011;18289;51.330;4.946;2022-09-20T07:48:28;8.60;;;4.38;;
31694;SDS011;18289;51.330;4.946;2022-09-20T07:51:00;7.05;;;4.13;;
31694;SDS011;18289;51.330;4.946;2022-09-20T07:53:28;5.45;;;3.67;;
31694;SDS011;18289;51.330;4.946;2022-09-20T08:00:50;6.28;;;3.55;;
31694;SDS011;18289;51.330;4.946;2022-09-20T08:03:17;5.32;;;3.42;;
31694;SDS011;18289;51.330;4.946;2022-09-20T08:05:43;10.73;;;3.90;;
31694;SDS011;18289;51.330;4.946;2022-09-20T08:08:09;4.93;;;3.45;;
31694;SDS011;18289;51.330;4.946;2022-09-20T08:10:35;6.90;;;3.50;;
31694;SDS011;18289;51.330;4.946;2022-09-20T08:13:04;6.00;;;3.33;;
31694;SDS011;18289;51.330;4.946;2022-09-20T08:15:30;6.68;;;3.22;;
31694;SDS011;18289;51.330;4.946;2022-09-20T08:17:56;4.15;;;2.78;;
31694;SDS011;18289;51.330;4.946;2022-09-20T08:20:21;5.13;;;3.20;;
31694;SDS011;18289;51.330;4.946;2022-09-20T08:22:47;5.35;;;2.97;;
31694;SDS011;18289;51.330;4.946;2022-09-20T08:25:13;8.82;;;3.15;;
31694;SDS011;18289;51.330;4.946;2022-09-20T08:27:41;6.35;;;3.30;;
31694;SDS011;18289;51.330;4.946;2022-09-20T08:30:07;5.22;;;3.28;;
31694;SDS011;18289;51.330;4.946;2022-09-20T08:32:37;6.07;;;3.90;;
31694;SDS011;18289;51.330;4.946;2022-09-20T08:35:02;4.30;;;3.90;;
31694;SDS011;18289;51.330;4.946;2022-09-20T08:37:30;7.43;;;4.45;;
31694;SDS011;18289;51.330;4.946;2022-09-20T08:39:56;7.03;;;4.13;;
31694;SDS011;18289;51.330;4.946;2022-09-20T08:45:06;7.03;;;4.55;;
31694;SDS011;18289;51.330;4.946;2022-09-20T08:47:44;10.52;;;5.50;;
31694;SDS011;18289;51.330;4.946;2022-09-20T08:50:17;8.77;;;4.60;;
31694;SDS011;18289;51.330;4.946;2022-09-20T08:52:45;6.68;;;4.57;;
31694;SDS011;18289;51.330;4.946;2022-09-20T08:55:17;9.07;;;5.90;;
31694;SDS011;18289;51.330;4.946;2022-09-20T08:57:46;8.10;;;5.50;;
31694;SDS011;18289;51.330;4.946;2022-09-20T09:00:22;8.10;;;5.47;;
31694;SDS011;18289;51.330;4.946;2022-09-20T09:02:54;6.22;;;5.63;;
31694;SDS011;18289;51.330;4.946;2022-09-20T09:05:35;8.82;;;5.97;;
31694;SDS011;18289;51.330;4.946;2022-09-20T09:08:24;8.07;;;4.95;;
31694;SDS011;18289;51.330;4.946;2022-09-20T09:10:59;8.18;;;5.72;;
31694;SDS011;18289;51.330;4.946;2022-09-20T09:13:38;10.88;;;5.10;;
31694;SDS011;18289;51.330;4.946;2022-09-20T09:16:19;10.55;;;5.25;;
31694;SDS011;18289;51.330;4.946;2022-09-20T09:18:47;7.97;;;5.23;;
31694;SDS011;18289;51.330;4.946;2022-09-20T09:21:19;7.68;;;5.00;;
31694;SDS011;18289;51.330;4.946;2022-09-20T09:24:06;8.45;;;4.78;;
31694;SDS011;18289;51.330;4.946;2022-09-20T09:26:40;4.25;;;3.22;;
31694;SDS011;18289;51.330;4.946;2022-09-20T09:29:17;4.50;;;3.17;;
31694;SDS011;18289;51.330;4.946;2022-09-20T09:31:48;7.05;;;3.55;;
31694;SDS011;18289;51.330;4.946;2022-09-20T09:36:48;6.93;;;2.78;;
31694;SDS011;18289;51.330;4.946;2022-09-20T09:41:53;5.78;;;2.80;;
31694;SDS011;18289;51.330;4.946;2022-09-20T09:46:47;3.55;;;2.30;;
31694;SDS011;18289;51.330;4.946;2022-09-20T09:49:20;4.75;;;2.83;;
31694;SDS011;18289;51.330;4.946;2022-09-20T09:54:28;6.60;;;2.65;;
31694;SDS011;18289;51.330;4.946;2022-09-20T10:00:24;4.35;;;2.65;;
31694;SDS011;18289;51.330;4.946;2022-09-20T10:08:25;4.93;;;2.50;;
31694;SDS011;18289;51.330;4.946;2022-09-20T10:19:14;3.00;;;2.35;;
31694;SDS011;18289;51.330;4.946;2022-09-20T10:30:26;6.05;;;2.22;;
31694;SDS011;18289;51.330;4.946;2022-09-20T10:35:58;3.55;;;2.20;;
31694;SDS011;18289;51.330;4.946;2022-09-20T10:38:38;4.80;;;1.80;;
31694;SDS011;18289;51.330;4.946;2022-09-20T10:41:31;3.83;;;2.40;;
31694;SDS011;18289;51.330;4.946;2022-09-20T10:49:19;4.93;;;2.15;;
31694;SDS011;18289;51.330;4.946;2022-09-20T11:08:11;5.75;;;1.80;;
31694;SDS011;18289;51.330;4.946;2022-09-20T11:10:50;3.40;;;1.90;;
31694;SDS011;18289;51.330;4.946;2022-09-20T11:13:21;3.80;;;1.95;;
31694;SDS011;18289;51.330;4.946;2022-09-20T11:21:20;5.38;;;2.13;;
31694;SDS011;18289;51.330;4.946;2022-09-20T11:23:58;5.70;;;1.92;;
31694;SDS011;18289;51.330;4.946;2022-09-20T11:26:35;4.22;;;1.92;;
31694;SDS011;18289;51.330;4.946;2022-09-20T11:31:40;4.68;;;1.80;;
31694;SDS011;18289;51.330;4.946;2022-09-20T11:36:56;3.13;;;1.50;;
31694;SDS011;18289;51.330;4.946;2022-09-20T11:42:24;6.40;;;1.80;;
31694;SDS011;18289;51.330;4.946;2022-09-20T11:44:56;5.82;;;2.38;;
31694;SDS011;18289;51.330;4.946;2022-09-20T11:48:05;4.85;;;1.73;;
31694;SDS011;18289;51.330;4.946;2022-09-20T11:56:01;4.70;;;1.50;;
31694;SDS011;18289;51.330;4.946;2022-09-20T11:58:44;5.25;;;1.65;;
31694;SDS011;18289;51.330;4.946;2022-09-20T12:01:15;4.43;;;1.80;;
31694;SDS011;18289;51.330;4.946;2022-09-20T12:03:51;4.97;;;1.63;;
31694;SDS011;18289;51.330;4.946;2022-09-20T12:06:34;5.30;;;1.80;;
31694;SDS011;18289;51.330;4.946;2022-09-20T12:09:03;7.25;;;1.42;;
31694;SDS011;18289;51.330;4.946;2022-09-20T12:11:46;5.05;;;1.65;;
31694;SDS011;18289;51.330;4.946;2022-09-20T12:14:18;3.40;;;1.38;;
31694;SDS011;18289;51.330;4.946;2022-09-20T12:16:56;5.80;;;1.70;;
31694;SDS011;18289;51.330;4.946;2022-09-20T12:24:26;3.22;;;1.60;;
31694;SDS011;18289;51.330;4.946;2022-09-20T12:26:58;3.58;;;1.30;;
31694;SDS011;18289;51.330;4.946;2022-09-20T12:36:44;5.22;;;2.10;;
31694;SDS011;18289;51.330;4.946;2022-09-20T12:39:35;3.67;;;1.95;;
31694;SDS011;18289;51.330;4.946;2022-09-20T12:42:21;7.28;;;3.10;;
31694;SDS011;18289;51.330;4.946;2022-09-20T12:47:31;3.42;;;1.88;;
31694;SDS011;18289;51.330;4.946;2022-09-20T12:49:59;4.90;;;2.22;;
31694;SDS011;18289;51.330;4.946;2022-09-20T13:05:40;8.35;;;2.83;;
31694;SDS011;18289;51.330;4.946;2022-09-20T13:10:38;3.85;;;1.95;;
31694;SDS011;18289;51.330;4.946;2022-09-20T13:13:13;5.50;;;2.05;;
31694;SDS011;18289;51.330;4.946;2022-09-20T13:16:01;5.80;;;2.00;;
31694;SDS011;18289;51.330;4.946;2022-09-20T13:18:29;4.30;;;1.98;;
31694;SDS011;18289;51.330;4.946;2022-09-20T13:20:56;3.00;;;1.70;;
31694;SDS011;18289;51.330;4.946;2022-09-20T13:23:27;4.70;;;1.60;;
31694;SDS011;18289;51.330;4.946;2022-09-20T13:25:56;4.37;;;2.00;;
31694;SDS011;18289;51.330;4.946;2022-09-20T13:28:27;5.32;;;1.80;;
31694;SDS011;18289;51.330;4.946;2022-09-20T13:33:45;4.28;;;1.63;;
31694;SDS011;18289;51.330;4.946;2022-09-20T13:36:11;2.88;;;1.80;;
31694;SDS011;18289;51.330;4.946;2022-09-20T13:38:37;4.40;;;1.90;;
31694;SDS011;18289;51.330;4.946;2022-09-20T13:41:07;4.63;;;2.05;;
31694;SDS011;18289;51.330;4.946;2022-09-20T13:43:43;4.55;;;1.75;;
31694;SDS011;18289;51.330;4.946;2022-09-20T13:46:28;6.32;;;2.50;;
31694;SDS011;18289;51.330;4.946;2022-09-20T13:49:12;4.22;;;1.90;;
31694;SDS011;18289;51.330;4.946;2022-09-20T13:51:48;5.82;;;1.95;;
31694;SDS011;18289;51.330;4.946;2022-09-20T13:54:27;4.03;;;2.00;;
31694;SDS011;18289;51.330;4.946;2022-09-20T13:56:55;4.20;;;2.10;;
31694;SDS011;18289;51.330;4.946;2022-09-20T13:59:27;2.97;;;1.90;;
31694;SDS011;18289;51.330;4.946;2022-09-20T14:01:59;5.10;;;1.73;;
31694;SDS011;18289;51.330;4.946;2022-09-20T14:04:26;3.05;;;1.70;;
31694;SDS011;18289;51.330;4.946;2022-09-20T14:06:54;3.90;;;2.30;;
31694;SDS011;18289;51.330;4.946;2022-09-20T14:09:29;4.25;;;2.00;;
31694;SDS011;18289;51.330;4.946;2022-09-20T14:11:58;2.95;;;1.70;;
31694;SDS011;18289;51.330;4.946;2022-09-20T14:14:24;4.93;;;1.80;;
31694;SDS011;18289;51.330;4.946;2022-09-20T14:16:52;4.68;;;1.70;;
31694;SDS011;18289;51.330;4.946;2022-09-20T14:19:19;6.72;;;2.03;;
31694;SDS011;18289;51.330;4.946;2022-09-20T14:21:51;8.32;;;2.28;;
31694;SDS011;18289;51.330;4.946;2022-09-20T14:24:24;5.40;;;2.35;;
31694;SDS011;18289;51.330;4.946;2022-09-20T14:34:41;5.50;;;2.80;;
31694;SDS011;18289;51.330;4.946;2022-09-20T14:37:52;8.45;;;2.55;;
31694;SDS011;18289;51.330;4.946;2022-09-20T14:40:20;4.38;;;2.38;;
31694;SDS011;18289;51.330;4.946;2022-09-20T14:42:47;5.13;;;2.25;;
31694;SDS011;18289;51.330;4.946;2022-09-20T14:45:20;3.63;;;1.75;;
31694;SDS011;18289;51.330;4.946;2022-09-20T14:47:53;2.65;;;1.50;;
31694;SDS011;18289;51.330;4.946;2022-09-20T14:50:31;5.97;;;1.90;;
31694;SDS011;18289;51.330;4.946;2022-09-20T14:55:25;2.28;;;1.80;;
31694;SDS011;18289;51.330;4.946;2022-09-20T14:57:55;2.15;;;1.65;;
31694;SDS011;18289;51.330;4.946;2022-09-20T15:00:23;4.90;;;2.20;;
31694;SDS011;18289;51.330;4.946;2022-09-20T15:02:49;2.17;;;1.70;;
31694;SDS011;18289;51.330;4.946;2022-09-20T15:05:17;6.97;;;1.90;;
31694;SDS011;18289;51.330;4.946;2022-09-20T15:07:52;5.50;;;1.83;;
31694;SDS011;18289;51.330;4.946;2022-09-20T15:10:19;2.92;;;1.80;;
31694;SDS011;18289;51.330;4.946;2022-09-20T15:12:46;3.05;;;2.13;;
31694;SDS011;18289;51.330;4.946;2022-09-20T15:15:13;5.85;;;2.10;;
31694;SDS011;18289;51.330;4.946;2022-09-20T15:17:40;4.37;;;1.77;;
31694;SDS011;18289;51.330;4.946;2022-09-20T15:20:40;4.80;;;1.60;;
31694;SDS011;18289;51.330;4.946;2022-09-20T15:22:58;4.72;;;2.03;;
31694;SDS011;18289;51.330;4.946;2022-09-20T15:25:25;4.95;;;2.40;;
31694;SDS011;18289;51.330;4.946;2022-09-20T15:27:53;3.22;;;1.70;;
31694;SDS011;18289;51.330;4.946;2022-09-20T15:30:21;3.67;;;2.17;;
31694;SDS011;18289;51.330;4.946;2022-09-20T15:32:47;4.13;;;2.42;;
31694;SDS011;18289;51.330;4.946;2022-09-20T15:35:13;3.55;;;1.73;;
31694;SDS011;18289;51.330;4.946;2022-09-20T15:37:39;6.30;;;2.10;;
31694;SDS011;18289;51.330;4.946;2022-09-20T15:40:06;8.25;;;2.33;;
31694;SDS011;18289;51.330;4.946;2022-09-20T15:42:33;4.00;;;1.90;;
31694;SDS011;18289;51.330;4.946;2022-09-20T15:45:06;4.63;;;2.20;;
31694;SDS011;18289;51.330;4.946;2022-09-20T15:47:34;7.35;;;2.08;;
31694;SDS011;18289;51.330;4.946;2022-09-20T15:50:01;4.10;;;1.55;;
31694;SDS011;18289;51.330;4.946;2022-09-20T15:52:31;2.28;;;1.63;;
31694;SDS011;18289;51.330;4.946;2022-09-20T15:54:59;2.78;;;2.08;;
31694;SDS011;18289;51.330;4.946;2022-09-20T15:57:25;2.50;;;1.60;;
31694;SDS011;18289;51.330;4.946;2022-09-20T15:59:52;3.70;;;2.08;;
31694;SDS011;18289;51.330;4.946;2022-09-20T16:02:18;4.38;;;1.90;;
31694;SDS011;18289;51.330;4.946;2022-09-20T16:04:45;5.63;;;1.95;;
31694;SDS011;18289;51.330;4.946;2022-09-20T16:07:11;5.00;;;2.00;;
31694;SDS011;18289;51.330;4.946;2022-09-20T16:09:37;4.40;;;1.70;;
31694;SDS011;18289;51.330;4.946;2022-09-20T16:12:03;4.80;;;1.70;;
31694;SDS011;18289;51.330;4.946;2022-09-20T16:14:30;3.22;;;2.03;;
31694;SDS011;18289;51.330;4.946;2022-09-20T16:16:55;2.47;;;1.50;;
31694;SDS011;18289;51.330;4.946;2022-09-20T16:19:21;4.93;;;1.77;;
31694;SDS011;18289;51.330;4.946;2022-09-20T16:24:17;4.47;;;2.00;;
31694;SDS011;18289;51.330;4.946;2022-09-20T16:26:43;4.90;;;1.92;;
31694;SDS011;18289;51.330;4.946;2022-09-20T16:29:11;3.90;;;1.80;;
31694;SDS011;18289;51.330;4.946;2022-09-20T16:31:40;2.28;;;1.52;;
31694;SDS011;18289;51.330;4.946;2022-09-20T16:34:09;3.15;;;1.60;;
31694;SDS011;18289;51.330;4.946;2022-09-20T16:36:37;2.22;;;1.40;;
31694;SDS011;18289;51.330;4.946;2022-09-20T16:41:35;5.40;;;1.65;;
31694;SDS011;18289;51.330;4.946;2022-09-20T16:46:35;4.57;;;1.90;;
31694;SDS011;18289;51.330;4.946;2022-09-20T16:49:02;4.82;;;2.38;;
31694;SDS011;18289;51.330;4.946;2022-09-20T16:51:34;6.75;;;2.97;;
31694;SDS011;18289;51.330;4.946;2022-09-20T16:54:11;4.07;;;2.28;;
31694;SDS011;18289;51.330;4.946;2022-09-20T16:56:41;7.10;;;2.40;;
31694;SDS011;18289;51.330;4.946;2022-09-20T16:59:09;3.53;;;1.88;;
31694;SDS011;18289;51.330;4.946;2022-09-20T17:01:38;3.08;;;1.98;;
31694;SDS011;18289;51.330;4.946;2022-09-20T17:04:05;3.63;;;1.80;;
31694;SDS011;18289;51.330;4.946;2022-09-20T17:06:32;2.90;;;2.10;;
31694;SDS011;18289;51.330;4.946;2022-09-20T17:08:58;5.47;;;2.40;;
31694;SDS011;18289;51.330;4.946;2022-09-20T17:11:26;5.75;;;2.50;;
31694;SDS011;18289;51.330;4.946;2022-09-20T17:13:53;17.38;;;3.05;;
31694;SDS011;18289;51.330;4.946;2022-09-20T17:16:20;8.50;;;2.63;;
31694;SDS011;18289;51.330;4.946;2022-09-20T17:18:54;9.38;;;2.60;;
31694;SDS011;18289;51.330;4.946;2022-09-20T17:21:25;6.30;;;3.05;;
31694;SDS011;18289;51.330;4.946;2022-09-20T17:23:53;7.78;;;2.83;;
31694;SDS011;18289;51.330;4.946;2022-09-20T17:26:21;4.28;;;3.00;;
31694;SDS011;18289;51.330;4.946;2022-09-20T17:28:48;7.45;;;3.00;;
31694;SDS011;18289;51.330;4.946;2022-09-20T17:31:16;8.13;;;3.58;;
31694;SDS011;18289;51.330;4.946;2022-09-20T17:33:45;11.48;;;3.45;;
31694;SDS011;18289;51.330;4.946;2022-09-20T17:36:12;15.57;;;4.63;;
31694;SDS011;18289;51.330;4.946;2022-09-20T17:38:40;8.38;;;4.25;;
31694;SDS011;18289;51.330;4.946;2022-09-20T17:41:16;11.60;;;4.30;;
31694;SDS011;18289;51.330;4.946;2022-09-20T17:43:43;14.40;;;4.57;;
31694;SDS011;18289;51.330;4.946;2022-09-20T17:46:23;8.43;;;3.65;;
31694;SDS011;18289;51.330;4.946;2022-09-20T17:48:55;14.23;;;3.63;;
31694;SDS011;18289;51.330;4.946;2022-09-20T17:51:28;6.68;;;3.85;;
31694;SDS011;18289;51.330;4.946;2022-09-20T17:53:55;12.18;;;3.67;;
31694;SDS011;18289;51.330;4.946;2022-09-20T17:56:21;8.15;;;3.30;;
31694;SDS011;18289;51.330;4.946;2022-09-20T17:58:52;6.60;;;2.88;;
31694;SDS011;18289;51.330;4.946;2022-09-20T18:01:21;13.30;;;3.35;;
31694;SDS011;18289;51.330;4.946;2022-09-20T18:03:49;9.30;;;3.30;;
31694;SDS011;18289;51.330;4.946;2022-09-20T18:08:49;8.13;;;2.60;;
31694;SDS011;18289;51.330;4.946;2022-09-20T18:11:18;5.88;;;2.95;;
31694;SDS011;18289;51.330;4.946;2022-09-20T18:13:45;6.82;;;2.95;;
31694;SDS011;18289;51.330;4.946;2022-09-20T18:16:11;7.00;;;3.00;;
31694;SDS011;18289;51.330;4.946;2022-09-20T18:18:39;3.35;;;2.65;;
31694;SDS011;18289;51.330;4.946;2022-09-20T18:21:24;5.05;;;2.78;;
31694;SDS011;18289;51.330;4.946;2022-09-20T18:23:50;7.57;;;2.53;;
31694;SDS011;18289;51.330;4.946;2022-09-20T18:26:20;4.95;;;2.40;;
31694;SDS011;18289;51.330;4.946;2022-09-20T18:28:58;3.30;;;2.13;;
31694;SDS011;18289;51.330;4.946;2022-09-20T18:34:00;3.25;;;2.17;;
31694;SDS011;18289;51.330;4.946;2022-09-20T18:36:33;4.18;;;2.42;;
31694;SDS011;18289;51.330;4.946;2022-09-20T18:39:01;7.53;;;2.72;;
31694;SDS011;18289;51.330;4.946;2022-09-20T18:41:28;2.70;;;2.00;;
31694;SDS011;18289;51.330;4.946;2022-09-20T18:43:58;4.50;;;2.50;;
31694;SDS011;18289;51.330;4.946;2022-09-20T18:46:27;4.43;;;2.63;;
31694;SDS011;18289;51.330;4.946;2022-09-20T18:48:55;5.43;;;2.38;;
31694;SDS011;18289;51.330;4.946;2022-09-20T18:51:23;11.15;;;5.10;;
31694;SDS011;18289;51.330;4.946;2022-09-20T18:53:53;6.35;;;3.47;;
31694;SDS011;18289;51.330;4.946;2022-09-20T18:56:23;5.95;;;3.15;;
31694;SDS011;18289;51.330;4.946;2022-09-20T18:59:00;3.20;;;2.72;;
31694;SDS011;18289;51.330;4.946;2022-09-20T19:09:39;7.72;;;4.18;;
31694;SDS011;18289;51.330;4.946;2022-09-20T19:15:11;5.45;;;3.72;;
31694;SDS011;18289;51.330;4.946;2022-09-20T19:20:33;5.43;;;3.42;;
31694;SDS011;18289;51.330;4.946;2022-09-20T19:25:44;4.93;;;3.28;;
31694;SDS011;18289;51.330;4.946;2022-09-20T19:28:12;6.20;;;5.10;;
31694;SDS011;18289;51.330;4.946;2022-09-20T19:30:39;6.15;;;4.40;;
31694;SDS011;18289;51.330;4.946;2022-09-20T19:33:10;5.88;;;3.88;;
31694;SDS011;18289;51.330;4.946;2022-09-20T19:35:41;7.78;;;4.00;;
31694;SDS011;18289;51.330;4.946;2022-09-20T19:38:25;6.20;;;3.75;;
31694;SDS011;18289;51.330;4.946;2022-09-20T19:49:42;9.52;;;4.45;;
31694;SDS011;18289;51.330;4.946;2022-09-20T19:52:16;8.60;;;4.28;;
31694;SDS011;18289;51.330;4.946;2022-09-20T19:54:42;5.20;;;3.65;;
31694;SDS011;18289;51.330;4.946;2022-09-20T19:57:13;7.63;;;4.50;;
31694;SDS011;18289;51.330;4.946;2022-09-20T19:59:58;9.77;;;4.72;;
31694;SDS011;18289;51.330;4.946;2022-09-20T20:02:24;7.20;;;4.72;;
31694;SDS011;18289;51.330;4.946;2022-09-20T20:04:50;7.93;;;3.72;;
31694;SDS011;18289;51.330;4.946;2022-09-20T20:07:25;6.82;;;4.00;;
31694;SDS011;18289;51.330;4.946;2022-09-20T20:15:38;4.90;;;3.90;;
31694;SDS011;18289;51.330;4.946;2022-09-20T20:18:36;4.10;;;3.60;;
31694;SDS011;18289;51.330;4.946;2022-09-20T20:21:09;8.38;;;3.88;;
31694;SDS011;18289;51.330;4.946;2022-09-20T20:23:50;5.43;;;4.47;;
31694;SDS011;18289;51.330;4.946;2022-09-20T20:26:25;5.97;;;4.63;;
31694;SDS011;18289;51.330;4.946;2022-09-20T20:28:51;6.13;;;4.47;;
31694;SDS011;18289;51.330;4.946;2022-09-20T20:31:18;7.20;;;4.70;;
31694;SDS011;18289;51.330;4.946;2022-09-20T20:33:44;7.35;;;5.28;;
31694;SDS011;18289;51.330;4.946;2022-09-20T20:36:10;6.55;;;4.10;;
31694;SDS011;18289;51.330;4.946;2022-09-20T20:38:36;6.43;;;4.50;;
31694;SDS011;18289;51.330;4.946;2022-09-20T20:41:08;6.43;;;4.60;;
31694;SDS011;18289;51.330;4.946;2022-09-20T20:43:38;8.98;;;4.63;;
31694;SDS011;18289;51.330;4.946;2022-09-20T20:46:06;6.85;;;4.40;;
31694;SDS011;18289;51.330;4.946;2022-09-20T20:48:34;6.23;;;5.53;;
31694;SDS011;18289;51.330;4.946;2022-09-20T20:51:02;6.32;;;5.70;;
31694;SDS011;18289;51.330;4.946;2022-09-20T20:53:36;6.63;;;5.53;;
31694;SDS011;18289;51.330;4.946;2022-09-20T20:56:12;9.10;;;5.22;;
31694;SDS011;18289;51.330;4.946;2022-09-20T20:58:40;8.35;;;5.35;;
31694;SDS011;18289;51.330;4.946;2022-09-20T21:01:11;5.85;;;5.25;;
31694;SDS011;18289;51.330;4.946;2022-09-20T21:03:39;5.97;;;5.13;;
31694;SDS011;18289;51.330;4.946;2022-09-20T21:06:06;7.32;;;5.32;;
31694;SDS011;18289;51.330;4.946;2022-09-20T21:08:32;8.57;;;5.80;;
31694;SDS011;18289;51.330;4.946;2022-09-20T21:11:09;7.18;;;5.93;;
31694;SDS011;18289;51.330;4.946;2022-09-20T21:13:42;12.93;;;6.90;;
31694;SDS011;18289;51.330;4.946;2022-09-20T21:18:36;7.50;;;5.55;;
31694;SDS011;18289;51.330;4.946;2022-09-20T21:21:03;6.75;;;5.30;;
31694;SDS011;18289;51.330;4.946;2022-09-20T21:23:32;7.97;;;5.72;;
31694;SDS011;18289;51.330;4.946;2022-09-20T21:26:04;8.50;;;5.28;;